sensor_id;sensor_type;location;lat;lon;timestamp;P1;durP1;ratioP1;P2;durP2;ratioP2
29812;SDS011;16707;48.106;11.548;2023-02-11T00:01:04;21.80;;;13.82;;
29812;SDS011;16707;48.106;11.548;2023-02-11T00:03:32;24.98;;;14.93;;
29812;SDS011;16707;48.106;11.548;2023-02-11T00:06:00;23.48;;;13.73;;
29812;SDS011;16707;48.106;11.548;2023-02-11T00:08:29;21.25;;;13.27;;
29812;SDS011;16707;48.106;11.548;2023-02-11T00:10:56;21.15;;;13.75;;
29812;SDS011;16707;48.106;11.548;2023-02-11T00:13:24;20.45;;;13.40;;
29812;SDS011;16707;48.106;11.548;2023-02-11T00:15:51;18.90;;;13.02;;
29812;SDS011;16707;48.106;11.548;2023-02-11T00:18:18;22.02;;;13.25;;
29812;SDS011;16707;48.106;11.548;2023-02-11T00:20:45;25.63;;;14.52;;
29812;SDS011;16707;48.106;11.548;2023-02-11T00:23:13;21.98;;;13.90;;
29812;SDS011;16707;48.106;11.548;2023-02-11T00:25:40;27.25;;;16.20;;
29812;SDS011;16707;48.106;11.548;2023-02-11T00:28:09;22.52;;;14.05;;
29812;SDS011;16707;48.106;11.548;2023-02-11T00:30:37;20.88;;;14.40;;
29812;SDS011;16707;48.106;11.548;2023-02-11T00:33:04;22.98;;;14.52;;
29812;SDS011;16707;48.106;11.548;2023-02-11T00:35:31;26.58;;;12.80;;
29812;SDS011;16707;48.106;11.548;2023-02-11T00:37:58;22.17;;;13.60;;
29812;SDS011;16707;48.106;11.548;2023-02-11T00:40:26;22.88;;;14.10;;
29812;SDS011;16707;48.106;11.548;2023-02-11T00:42:53;23.10;;;13.50;;
29812;SDS011;16707;48.106;11.548;2023-02-11T00:45:20;27.13;;;13.65;;
29812;SDS011;16707;48.106;11.548;2023-02-11T00:47:46;23.17;;;15.85;;
29812;SDS011;16707;48.106;11.548;2023-02-11T00:50:13;23.90;;;14.88;;
29812;SDS011;16707;48.106;11.548;2023-02-11T00:52:40;22.17;;;13.75;;
29812;SDS011;16707;48.106;11.548;2023-02-11T00:55:07;24.38;;;15.40;;
29812;SDS011;16707;48.106;11.548;2023-02-11T00:57:36;23.65;;;14.85;;
29812;SDS011;16707;48.106;11.548;2023-02-11T01:00:03;23.90;;;13.18;;
29812;SDS011;16707;48.106;11.548;2023-02-11T01:02:32;19.48;;;13.52;;
29812;SDS011;16707;48.106;11.548;2023-02-11T01:04:59;23.85;;;14.30;;
29812;SDS011;16707;48.106;11.548;2023-02-11T01:07:26;23.75;;;13.73;;
29812;SDS011;16707;48.106;11.548;2023-02-11T01:09:53;27.27;;;14.73;;
29812;SDS011;16707;48.106;11.548;2023-02-11T01:12:20;24.73;;;13.95;;
29812;SDS011;16707;48.106;11.548;2023-02-11T01:14:49;21.08;;;13.48;;
29812;SDS011;16707;48.106;11.548;2023-02-11T01:17:16;21.13;;;13.35;;
29812;SDS011;16707;48.106;11.548;2023-02-11T01:19:42;20.58;;;13.23;;
29812;SDS011;16707;48.106;11.548;2023-02-11T01:22:09;22.98;;;14.45;;
29812;SDS011;16707;48.106;11.548;2023-02-11T01:24:36;22.85;;;13.93;;
29812;SDS011;16707;48.106;11.548;2023-02-11T01:27:03;19.88;;;13.10;;
29812;SDS011;16707;48.106;11.548;2023-02-11T01:29:30;25.05;;;14.48;;
29812;SDS011;16707;48.106;11.548;2023-02-11T01:31:58;22.15;;;13.82;;
29812;SDS011;16707;48.106;11.548;2023-02-11T01:34:26;21.85;;;14.05;;
29812;SDS011;16707;48.106;11.548;2023-02-11T01:36:55;21.73;;;14.13;;
29812;SDS011;16707;48.106;11.548;2023-02-11T01:39:22;21.52;;;13.57;;
29812;SDS011;16707;48.106;11.548;2023-02-11T01:41:49;22.30;;;12.70;;
29812;SDS011;16707;48.106;11.548;2023-02-11T01:44:20;22.65;;;13.80;;
29812;SDS011;16707;48.106;11.548;2023-02-11T01:46:49;21.30;;;13.35;;
29812;SDS011;16707;48.106;11.548;2023-02-11T01:49:18;19.73;;;13.82;;
29812;SDS011;16707;48.106;11.548;2023-02-11T01:51:50;21.90;;;12.88;;
29812;SDS011;16707;48.106;11.548;2023-02-11T01:54:21;20.77;;;12.70;;
29812;SDS011;16707;48.106;11.548;2023-02-11T01:57:09;20.05;;;12.73;;
29812;SDS011;16707;48.106;11.548;2023-02-11T01:59:49;22.80;;;13.80;;
29812;SDS011;16707;48.106;11.548;2023-02-11T02:02:24;23.27;;;13.90;;
29812;SDS011;16707;48.106;11.548;2023-02-11T02:04:59;20.80;;;12.60;;
29812;SDS011;16707;48.106;11.548;2023-02-11T02:07:31;21.55;;;13.02;;
29812;SDS011;16707;48.106;11.548;2023-02-11T02:10:02;23.27;;;13.63;;
29812;SDS011;16707;48.106;11.548;2023-02-11T02:12:32;22.77;;;13.63;;
29812;SDS011;16707;48.106;11.548;2023-02-11T02:17:49;22.92;;;13.18;;
29812;SDS011;16707;48.106;11.548;2023-02-11T02:20:29;21.15;;;13.48;;
29812;SDS011;16707;48.106;11.548;2023-02-11T02:23:24;21.23;;;12.88;;
29812;SDS011;16707;48.106;11.548;2023-02-11T02:29:26;22.90;;;13.45;;
29812;SDS011;16707;48.106;11.548;2023-02-11T02:35:14;21.42;;;13.23;;
29812;SDS011;16707;48.106;11.548;2023-02-11T02:37:50;20.25;;;12.82;;
29812;SDS011;16707;48.106;11.548;2023-02-11T02:40:23;23.92;;;14.63;;
29812;SDS011;16707;48.106;11.548;2023-02-11T02:42:54;22.15;;;14.18;;
29812;SDS011;16707;48.106;11.548;2023-02-11T02:45:23;21.65;;;12.77;;
29812;SDS011;16707;48.106;11.548;2023-02-11T02:47:51;22.08;;;12.50;;
29812;SDS011;16707;48.106;11.548;2023-02-11T02:50:18;22.40;;;13.10;;
29812;SDS011;16707;48.106;11.548;2023-02-11T02:52:53;19.27;;;12.55;;
29812;SDS011;16707;48.106;11.548;2023-02-11T02:55:43;19.02;;;12.60;;
29812;SDS011;16707;48.106;11.548;2023-02-11T02:58:31;19.23;;;12.65;;
29812;SDS011;16707;48.106;11.548;2023-02-11T03:01:12;21.23;;;13.13;;
29812;SDS011;16707;48.106;11.548;2023-02-11T03:03:51;19.92;;;12.10;;
29812;SDS011;16707;48.106;11.548;2023-02-11T03:06:27;20.88;;;12.45;;
29812;SDS011;16707;48.106;11.548;2023-02-11T03:08:59;17.15;;;11.77;;
29812;SDS011;16707;48.106;11.548;2023-02-11T03:11:31;15.18;;;11.10;;
29812;SDS011;16707;48.106;11.548;2023-02-11T03:14:00;21.15;;;11.65;;
29812;SDS011;16707;48.106;11.548;2023-02-11T03:16:29;19.30;;;11.80;;
29812;SDS011;16707;48.106;11.548;2023-02-11T03:19:04;19.92;;;12.05;;
29812;SDS011;16707;48.106;11.548;2023-02-11T03:21:36;18.10;;;11.10;;
29812;SDS011;16707;48.106;11.548;2023-02-11T03:24:06;19.23;;;11.63;;
29812;SDS011;16707;48.106;11.548;2023-02-11T03:26:36;19.98;;;10.88;;
29812;SDS011;16707;48.106;11.548;2023-02-11T03:29:07;17.65;;;10.20;;
29812;SDS011;16707;48.106;11.548;2023-02-11T03:31:43;16.42;;;10.82;;
29812;SDS011;16707;48.106;11.548;2023-02-11T03:34:20;18.08;;;10.52;;
29812;SDS011;16707;48.106;11.548;2023-02-11T03:36:54;18.35;;;10.60;;
29812;SDS011;16707;48.106;11.548;2023-02-11T03:39:26;17.50;;;9.88;;
29812;SDS011;16707;48.106;11.548;2023-02-11T03:41:56;13.38;;;8.90;;
29812;SDS011;16707;48.106;11.548;2023-02-11T03:44:26;13.65;;;9.52;;
29812;SDS011;16707;48.106;11.548;2023-02-11T03:46:55;16.60;;;9.85;;
29812;SDS011;16707;48.106;11.548;2023-02-11T03:49:24;15.40;;;9.60;;
29812;SDS011;16707;48.106;11.548;2023-02-11T03:51:53;16.65;;;9.00;;
29812;SDS011;16707;48.106;11.548;2023-02-11T03:54:23;13.57;;;9.13;;
29812;SDS011;16707;48.106;11.548;2023-02-11T03:56:55;14.52;;;9.85;;
29812;SDS011;16707;48.106;11.548;2023-02-11T03:59:23;14.90;;;8.65;;
29812;SDS011;16707;48.106;11.548;2023-02-11T04:01:50;13.73;;;8.68;;
29812;SDS011;16707;48.106;11.548;2023-02-11T04:04:18;14.80;;;9.18;;
29812;SDS011;16707;48.106;11.548;2023-02-11T04:06:46;14.40;;;9.00;;
29812;SDS011;16707;48.106;11.548;2023-02-11T04:09:13;16.10;;;9.20;;
29812;SDS011;16707;48.106;11.548;2023-02-11T04:11:40;12.82;;;8.98;;
29812;SDS011;16707;48.106;11.548;2023-02-11T04:14:07;13.23;;;8.13;;
29812;SDS011;16707;48.106;11.548;2023-02-11T04:16:34;16.55;;;9.13;;
29812;SDS011;16707;48.106;11.548;2023-02-11T04:19:01;14.07;;;9.20;;
29812;SDS011;16707;48.106;11.548;2023-02-11T04:21:28;14.70;;;9.32;;
29812;SDS011;16707;48.106;11.548;2023-02-11T04:23:56;11.60;;;8.45;;
29812;SDS011;16707;48.106;11.548;2023-02-11T04:26:23;11.70;;;8.13;;
29812;SDS011;16707;48.106;11.548;2023-02-11T04:28:50;12.25;;;8.13;;
29812;SDS011;16707;48.106;11.548;2023-02-11T04:31:16;13.60;;;8.50;;
29812;SDS011;16707;48.106;11.548;2023-02-11T04:33:43;15.85;;;8.43;;
29812;SDS011;16707;48.106;11.548;2023-02-11T04:36:10;16.75;;;8.15;;
29812;SDS011;16707;48.106;11.548;2023-02-11T04:38:38;19.00;;;8.70;;
29812;SDS011;16707;48.106;11.548;2023-02-11T04:41:06;13.82;;;8.50;;
29812;SDS011;16707;48.106;11.548;2023-02-11T04:43:33;12.90;;;8.35;;
29812;SDS011;16707;48.106;11.548;2023-02-11T04:45:59;17.80;;;9.50;;
29812;SDS011;16707;48.106;11.548;2023-02-11T04:48:26;13.23;;;8.75;;
29812;SDS011;16707;48.106;11.548;2023-02-11T04:50:53;12.23;;;7.85;;
29812;SDS011;16707;48.106;11.548;2023-02-11T04:53:20;14.82;;;8.23;;
29812;SDS011;16707;48.106;11.548;2023-02-11T04:55:47;16.08;;;8.48;;
29812;SDS011;16707;48.106;11.548;2023-02-11T04:58:16;12.18;;;7.85;;
29812;SDS011;16707;48.106;11.548;2023-02-11T05:00:43;17.35;;;9.23;;
29812;SDS011;16707;48.106;11.548;2023-02-11T05:03:10;13.27;;;8.68;;
29812;SDS011;16707;48.106;11.548;2023-02-11T05:05:38;14.20;;;8.57;;
29812;SDS011;16707;48.106;11.548;2023-02-11T05:08:05;14.18;;;8.93;;
29812;SDS011;16707;48.106;11.548;2023-02-11T05:10:33;15.40;;;8.95;;
29812;SDS011;16707;48.106;11.548;2023-02-11T05:13:00;16.52;;;8.85;;
29812;SDS011;16707;48.106;11.548;2023-02-11T05:15:28;14.65;;;8.77;;
29812;SDS011;16707;48.106;11.548;2023-02-11T05:17:55;12.85;;;7.97;;
29812;SDS011;16707;48.106;11.548;2023-02-11T05:20:22;13.93;;;8.75;;
29812;SDS011;16707;48.106;11.548;2023-02-11T05:22:49;13.35;;;8.73;;
29812;SDS011;16707;48.106;11.548;2023-02-11T05:25:16;15.13;;;9.13;;
29812;SDS011;16707;48.106;11.548;2023-02-11T05:27:44;13.23;;;9.23;;
29812;SDS011;16707;48.106;11.548;2023-02-11T05:30:11;16.48;;;9.38;;
29812;SDS011;16707;48.106;11.548;2023-02-11T05:32:39;11.80;;;8.02;;
29812;SDS011;16707;48.106;11.548;2023-02-11T05:35:07;13.25;;;8.63;;
29812;SDS011;16707;48.106;11.548;2023-02-11T05:37:33;14.63;;;8.13;;
29812;SDS011;16707;48.106;11.548;2023-02-11T05:40:00;12.25;;;7.15;;
29812;SDS011;16707;48.106;11.548;2023-02-11T05:42:27;14.70;;;7.70;;
29812;SDS011;16707;48.106;11.548;2023-02-11T05:44:54;11.80;;;7.47;;
29812;SDS011;16707;48.106;11.548;2023-02-11T05:47:21;10.80;;;7.32;;
29812;SDS011;16707;48.106;11.548;2023-02-11T05:49:50;12.27;;;6.88;;
29812;SDS011;16707;48.106;11.548;2023-02-11T05:52:17;9.45;;;7.10;;
29812;SDS011;16707;48.106;11.548;2023-02-11T05:54:44;10.98;;;7.93;;
29812;SDS011;16707;48.106;11.548;2023-02-11T05:57:11;14.68;;;7.82;;
29812;SDS011;16707;48.106;11.548;2023-02-11T05:59:38;11.43;;;7.32;;
29812;SDS011;16707;48.106;11.548;2023-02-11T06:02:05;11.45;;;7.10;;
29812;SDS011;16707;48.106;11.548;2023-02-11T06:04:35;8.27;;;5.93;;
29812;SDS011;16707;48.106;11.548;2023-02-11T06:07:03;10.20;;;5.78;;
29812;SDS011;16707;48.106;11.548;2023-02-11T06:09:30;9.73;;;6.35;;
29812;SDS011;16707;48.106;11.548;2023-02-11T06:11:57;10.18;;;6.40;;
29812;SDS011;16707;48.106;11.548;2023-02-11T06:14:24;9.90;;;5.90;;
29812;SDS011;16707;48.106;11.548;2023-02-11T06:16:51;10.48;;;6.72;;
29812;SDS011;16707;48.106;11.548;2023-02-11T06:19:18;11.07;;;5.97;;
29812;SDS011;16707;48.106;11.548;2023-02-11T06:21:45;9.90;;;6.10;;
29812;SDS011;16707;48.106;11.548;2023-02-11T06:24:13;11.95;;;6.18;;
29812;SDS011;16707;48.106;11.548;2023-02-11T06:26:40;8.35;;;5.93;;
29812;SDS011;16707;48.106;11.548;2023-02-11T06:29:07;9.63;;;6.03;;
29812;SDS011;16707;48.106;11.548;2023-02-11T06:31:35;12.48;;;6.28;;
29812;SDS011;16707;48.106;11.548;2023-02-11T06:34:02;9.10;;;5.55;;
29812;SDS011;16707;48.106;11.548;2023-02-11T06:36:30;9.23;;;6.07;;
29812;SDS011;16707;48.106;11.548;2023-02-11T06:38:57;8.77;;;4.95;;
29812;SDS011;16707;48.106;11.548;2023-02-11T06:41:25;9.00;;;5.88;;
29812;SDS011;16707;48.106;11.548;2023-02-11T06:43:52;9.98;;;5.70;;
29812;SDS011;16707;48.106;11.548;2023-02-11T06:46:19;9.40;;;5.43;;
29812;SDS011;16707;48.106;11.548;2023-02-11T06:48:46;9.43;;;6.00;;
29812;SDS011;16707;48.106;11.548;2023-02-11T06:51:13;8.98;;;5.05;;
29812;SDS011;16707;48.106;11.548;2023-02-11T06:53:41;9.50;;;5.07;;
29812;SDS011;16707;48.106;11.548;2023-02-11T06:56:10;7.28;;;4.78;;
29812;SDS011;16707;48.106;11.548;2023-02-11T06:58:41;9.23;;;5.07;;
29812;SDS011;16707;48.106;11.548;2023-02-11T07:01:09;10.18;;;5.07;;
29812;SDS011;16707;48.106;11.548;2023-02-11T07:03:39;9.63;;;5.13;;
29812;SDS011;16707;48.106;11.548;2023-02-11T07:06:10;11.00;;;4.80;;
29812;SDS011;16707;48.106;11.548;2023-02-11T07:08:38;9.63;;;5.50;;
29812;SDS011;16707;48.106;11.548;2023-02-11T07:11:07;7.85;;;4.93;;
29812;SDS011;16707;48.106;11.548;2023-02-11T07:13:36;7.75;;;5.05;;
29812;SDS011;16707;48.106;11.548;2023-02-11T07:16:05;11.43;;;5.10;;
29812;SDS011;16707;48.106;11.548;2023-02-11T07:18:33;8.82;;;4.50;;
29812;SDS011;16707;48.106;11.548;2023-02-11T07:21:02;5.63;;;4.20;;
29812;SDS011;16707;48.106;11.548;2023-02-11T07:23:30;10.35;;;5.38;;
29812;SDS011;16707;48.106;11.548;2023-02-11T07:26:00;7.28;;;4.72;;
29812;SDS011;16707;48.106;11.548;2023-02-11T07:28:28;13.30;;;5.38;;
29812;SDS011;16707;48.106;11.548;2023-02-11T07:30:55;9.70;;;4.68;;
29812;SDS011;16707;48.106;11.548;2023-02-11T07:33:23;7.75;;;4.75;;
29812;SDS011;16707;48.106;11.548;2023-02-11T07:35:50;9.13;;;4.82;;
29812;SDS011;16707;48.106;11.548;2023-02-11T07:38:17;9.35;;;4.15;;
29812;SDS011;16707;48.106;11.548;2023-02-11T07:40:44;5.60;;;4.25;;
29812;SDS011;16707;48.106;11.548;2023-02-11T07:43:11;7.68;;;4.88;;
29812;SDS011;16707;48.106;11.548;2023-02-11T07:45:38;9.30;;;4.78;;
29812;SDS011;16707;48.106;11.548;2023-02-11T07:48:05;10.15;;;5.28;;
29812;SDS011;16707;48.106;11.548;2023-02-11T07:50:33;6.57;;;3.92;;
29812;SDS011;16707;48.106;11.548;2023-02-11T07:53:00;11.90;;;4.60;;
29812;SDS011;16707;48.106;11.548;2023-02-11T07:55:28;7.25;;;4.22;;
29812;SDS011;16707;48.106;11.548;2023-02-11T07:57:55;9.10;;;4.57;;
29812;SDS011;16707;48.106;11.548;2023-02-11T08:00:22;9.57;;;5.05;;
29812;SDS011;16707;48.106;11.548;2023-02-11T08:02:49;17.42;;;5.72;;
29812;SDS011;16707;48.106;11.548;2023-02-11T08:05:16;13.82;;;5.85;;
29812;SDS011;16707;48.106;11.548;2023-02-11T08:07:45;12.13;;;4.85;;
29812;SDS011;16707;48.106;11.548;2023-02-11T08:10:11;10.18;;;5.10;;
29812;SDS011;16707;48.106;11.548;2023-02-11T08:12:38;10.43;;;4.60;;
29812;SDS011;16707;48.106;11.548;2023-02-11T08:15:05;11.65;;;4.85;;
29812;SDS011;16707;48.106;11.548;2023-02-11T08:17:33;9.88;;;4.95;;
29812;SDS011;16707;48.106;11.548;2023-02-11T08:20:00;10.15;;;5.57;;
29812;SDS011;16707;48.106;11.548;2023-02-11T08:22:29;8.00;;;5.13;;
29812;SDS011;16707;48.106;11.548;2023-02-11T08:24:58;11.60;;;4.93;;
29812;SDS011;16707;48.106;11.548;2023-02-11T08:27:25;11.93;;;4.60;;
29812;SDS011;16707;48.106;11.548;2023-02-11T08:29:52;8.45;;;4.93;;
29812;SDS011;16707;48.106;11.548;2023-02-11T08:32:19;11.57;;;5.13;;
29812;SDS011;16707;48.106;11.548;2023-02-11T08:34:49;9.85;;;4.85;;
29812;SDS011;16707;48.106;11.548;2023-02-11T08:37:16;11.48;;;5.18;;
29812;SDS011;16707;48.106;11.548;2023-02-11T08:39:43;17.63;;;6.43;;
29812;SDS011;16707;48.106;11.548;2023-02-11T08:42:13;10.15;;;5.78;;
29812;SDS011;16707;48.106;11.548;2023-02-11T08:44:40;19.00;;;5.95;;
29812;SDS011;16707;48.106;11.548;2023-02-11T08:47:08;11.70;;;6.13;;
29812;SDS011;16707;48.106;11.548;2023-02-11T08:49:35;21.65;;;7.93;;
29812;SDS011;16707;48.106;11.548;2023-02-11T08:52:02;21.08;;;7.15;;
29812;SDS011;16707;48.106;11.548;2023-02-11T08:54:29;11.68;;;5.38;;
29812;SDS011;16707;48.106;11.548;2023-02-11T08:56:57;10.68;;;5.72;;
29812;SDS011;16707;48.106;11.548;2023-02-11T08:59:27;9.88;;;5.57;;
29812;SDS011;16707;48.106;11.548;2023-02-11T09:01:54;9.55;;;6.00;;
29812;SDS011;16707;48.106;11.548;2023-02-11T09:04:22;8.73;;;5.40;;
29812;SDS011;16707;48.106;11.548;2023-02-11T09:06:49;12.15;;;4.95;;
29812;SDS011;16707;48.106;11.548;2023-02-11T09:09:16;9.63;;;4.63;;
29812;SDS011;16707;48.106;11.548;2023-02-11T09:11:43;8.13;;;4.45;;
29812;SDS011;16707;48.106;11.548;2023-02-11T09:14:14;9.23;;;5.72;;
29812;SDS011;16707;48.106;11.548;2023-02-11T09:16:45;8.52;;;5.18;;
29812;SDS011;16707;48.106;11.548;2023-02-11T09:19:12;6.88;;;4.35;;
29812;SDS011;16707;48.106;11.548;2023-02-11T09:21:39;10.25;;;4.97;;
29812;SDS011;16707;48.106;11.548;2023-02-11T09:24:06;8.30;;;4.43;;
29812;SDS011;16707;48.106;11.548;2023-02-11T09:26:34;9.20;;;4.93;;
29812;SDS011;16707;48.106;11.548;2023-02-11T09:29:02;7.40;;;4.50;;
29812;SDS011;16707;48.106;11.548;2023-02-11T09:31:30;14.98;;;5.60;;
29812;SDS011;16707;48.106;11.548;2023-02-11T09:34:00;10.30;;;4.97;;
29812;SDS011;16707;48.106;11.548;2023-02-11T09:36:30;8.63;;;4.68;;
29812;SDS011;16707;48.106;11.548;2023-02-11T09:39:01;17.63;;;7.25;;
29812;SDS011;16707;48.106;11.548;2023-02-11T09:41:34;12.73;;;5.15;;
29812;SDS011;16707;48.106;11.548;2023-02-11T09:44:16;9.18;;;4.28;;
29812;SDS011;16707;48.106;11.548;2023-02-11T09:46:45;7.55;;;4.85;;
29812;SDS011;16707;48.106;11.548;2023-02-11T09:49:20;5.75;;;3.75;;
29812;SDS011;16707;48.106;11.548;2023-02-11T09:51:51;9.80;;;4.47;;
29812;SDS011;16707;48.106;11.548;2023-02-11T09:54:25;13.65;;;5.40;;
29812;SDS011;16707;48.106;11.548;2023-02-11T09:56:55;9.32;;;4.50;;
29812;SDS011;16707;48.106;11.548;2023-02-11T09:59:22;7.88;;;4.93;;
29812;SDS011;16707;48.106;11.548;2023-02-11T10:01:49;9.88;;;4.10;;
29812;SDS011;16707;48.106;11.548;2023-02-11T10:04:23;9.80;;;4.43;;
29812;SDS011;16707;48.106;11.548;2023-02-11T10:07:11;7.78;;;4.65;;
29812;SDS011;16707;48.106;11.548;2023-02-11T10:09:50;7.65;;;5.15;;
29812;SDS011;16707;48.106;11.548;2023-02-11T10:12:28;10.05;;;5.35;;
29812;SDS011;16707;48.106;11.548;2023-02-11T10:15:07;10.30;;;5.30;;
29812;SDS011;16707;48.106;11.548;2023-02-11T10:17:44;10.20;;;5.60;;
29812;SDS011;16707;48.106;11.548;2023-02-11T10:20:28;10.18;;;5.20;;
29812;SDS011;16707;48.106;11.548;2023-02-11T10:22:59;12.18;;;5.90;;
29812;SDS011;16707;48.106;11.548;2023-02-11T10:25:35;10.60;;;6.00;;
29812;SDS011;16707;48.106;11.548;2023-02-11T10:28:09;11.27;;;6.93;;
29812;SDS011;16707;48.106;11.548;2023-02-11T10:30:40;13.82;;;7.03;;
29812;SDS011;16707;48.106;11.548;2023-02-11T10:33:11;14.77;;;6.90;;
29812;SDS011;16707;48.106;11.548;2023-02-11T10:35:49;11.52;;;6.88;;
29812;SDS011;16707;48.106;11.548;2023-02-11T10:38:16;12.15;;;6.97;;
29812;SDS011;16707;48.106;11.548;2023-02-11T10:40:43;10.38;;;5.82;;
29812;SDS011;16707;48.106;11.548;2023-02-11T10:43:10;9.07;;;5.38;;
29812;SDS011;16707;48.106;11.548;2023-02-11T10:45:40;11.07;;;6.70;;
29812;SDS011;16707;48.106;11.548;2023-02-11T10:51:11;10.15;;;6.75;;
29812;SDS011;16707;48.106;11.548;2023-02-11T10:53:44;14.93;;;6.88;;
29812;SDS011;16707;48.106;11.548;2023-02-11T10:56:13;17.45;;;6.60;;
29812;SDS011;16707;48.106;11.548;2023-02-11T10:58:53;10.13;;;6.97;;
29812;SDS011;16707;48.106;11.548;2023-02-11T11:01:22;10.63;;;5.93;;
29812;SDS011;16707;48.106;11.548;2023-02-11T11:04:03;14.77;;;6.68;;
29812;SDS011;16707;48.106;11.548;2023-02-11T11:06:32;12.73;;;7.15;;
29812;SDS011;16707;48.106;11.548;2023-02-11T11:09:00;12.48;;;6.53;;
29812;SDS011;16707;48.106;11.548;2023-02-11T11:11:28;13.32;;;6.63;;
29812;SDS011;16707;48.106;11.548;2023-02-11T11:13:56;12.75;;;6.93;;
29812;SDS011;16707;48.106;11.548;2023-02-11T11:16:25;11.95;;;5.97;;
29812;SDS011;16707;48.106;11.548;2023-02-11T11:18:53;9.68;;;5.75;;
29812;SDS011;16707;48.106;11.548;2023-02-11T11:21:43;11.88;;;6.53;;
29812;SDS011;16707;48.106;11.548;2023-02-11T11:24:16;9.90;;;5.53;;
29812;SDS011;16707;48.106;11.548;2023-02-11T11:29:15;9.93;;;5.55;;
29812;SDS011;16707;48.106;11.548;2023-02-11T11:31:45;10.10;;;5.88;;
29812;SDS011;16707;48.106;11.548;2023-02-11T11:34:18;11.38;;;5.82;;
29812;SDS011;16707;48.106;11.548;2023-02-11T11:36:49;8.05;;;5.70;;
29812;SDS011;16707;48.106;11.548;2023-02-11T11:39:18;15.98;;;5.95;;
29812;SDS011;16707;48.106;11.548;2023-02-11T11:41:48;11.98;;;6.07;;
29812;SDS011;16707;48.106;11.548;2023-02-11T11:44:23;10.05;;;5.30;;
29812;SDS011;16707;48.106;11.548;2023-02-11T11:55:23;13.88;;;5.72;;
29812;SDS011;16707;48.106;11.548;2023-02-11T11:57:53;13.73;;;5.95;;
29812;SDS011;16707;48.106;11.548;2023-02-11T12:00:22;10.02;;;5.82;;
29812;SDS011;16707;48.106;11.548;2023-02-11T12:03:05;11.57;;;5.85;;
29812;SDS011;16707;48.106;11.548;2023-02-11T12:08:28;11.68;;;6.25;;
29812;SDS011;16707;48.106;11.548;2023-02-11T12:11:08;11.10;;;5.78;;
29812;SDS011;16707;48.106;11.548;2023-02-11T12:13:44;13.48;;;6.40;;
29812;SDS011;16707;48.106;11.548;2023-02-11T12:16:23;11.07;;;6.53;;
29812;SDS011;16707;48.106;11.548;2023-02-11T12:22:02;10.18;;;5.28;;
29812;SDS011;16707;48.106;11.548;2023-02-11T12:24:43;7.63;;;5.05;;
29812;SDS011;16707;48.106;11.548;2023-02-11T12:30:00;10.35;;;5.93;;
29812;SDS011;16707;48.106;11.548;2023-02-11T12:32:36;9.55;;;5.53;;
29812;SDS011;16707;48.106;11.548;2023-02-11T12:35:17;10.77;;;6.13;;
29812;SDS011;16707;48.106;11.548;2023-02-11T12:41:08;11.55;;;6.03;;
29812;SDS011;16707;48.106;11.548;2023-02-11T12:44:07;9.48;;;5.85;;
29812;SDS011;16707;48.106;11.548;2023-02-11T12:46:41;12.93;;;5.68;;
29812;SDS011;16707;48.106;11.548;2023-02-11T12:49:33;8.95;;;5.57;;
29812;SDS011;16707;48.106;11.548;2023-02-11T12:52:24;11.02;;;5.97;;
29812;SDS011;16707;48.106;11.548;2023-02-11T12:55:00;13.68;;;5.85;;
29812;SDS011;16707;48.106;11.548;2023-02-11T12:57:31;12.27;;;5.55;;
29812;SDS011;16707;48.106;11.548;2023-02-11T13:00:02;7.38;;;5.38;;
29812;SDS011;16707;48.106;11.548;2023-02-11T13:02:40;10.52;;;5.88;;
29812;SDS011;16707;48.106;11.548;2023-02-11T13:05:14;9.70;;;6.30;;
29812;SDS011;16707;48.106;11.548;2023-02-11T13:07:48;10.43;;;5.40;;
29812;SDS011;16707;48.106;11.548;2023-02-11T13:10:21;11.68;;;5.93;;
29812;SDS011;16707;48.106;11.548;2023-02-11T13:12:53;9.93;;;5.60;;
29812;SDS011;16707;48.106;11.548;2023-02-11T13:15:40;9.80;;;5.78;;
29812;SDS011;16707;48.106;11.548;2023-02-11T13:18:11;10.55;;;5.85;;
29812;SDS011;16707;48.106;11.548;2023-02-11T13:20:50;11.95;;;5.47;;
29812;SDS011;16707;48.106;11.548;2023-02-11T13:23:22;9.65;;;5.93;;
29812;SDS011;16707;48.106;11.548;2023-02-11T13:25:53;11.85;;;6.22;;
29812;SDS011;16707;48.106;11.548;2023-02-11T13:28:27;12.05;;;5.65;;
29812;SDS011;16707;48.106;11.548;2023-02-11T13:31:05;9.98;;;5.47;;
29812;SDS011;16707;48.106;11.548;2023-02-11T13:33:34;11.85;;;5.95;;
29812;SDS011;16707;48.106;11.548;2023-02-11T13:36:13;11.02;;;6.30;;
29812;SDS011;16707;48.106;11.548;2023-02-11T13:38:49;10.45;;;5.47;;
29812;SDS011;16707;48.106;11.548;2023-02-11T13:41:20;9.02;;;5.07;;
29812;SDS011;16707;48.106;11.548;2023-02-11T13:44:03;10.02;;;5.50;;
29812;SDS011;16707;48.106;11.548;2023-02-11T13:46:50;8.35;;;5.07;;
29812;SDS011;16707;48.106;11.548;2023-02-11T13:49:20;11.65;;;5.60;;
29812;SDS011;16707;48.106;11.548;2023-02-11T13:51:50;9.30;;;5.05;;
29812;SDS011;16707;48.106;11.548;2023-02-11T13:54:22;11.40;;;5.75;;
29812;SDS011;16707;48.106;11.548;2023-02-11T13:59:57;8.13;;;5.03;;
29812;SDS011;16707;48.106;11.548;2023-02-11T14:02:27;9.80;;;5.40;;
29812;SDS011;16707;48.106;11.548;2023-02-11T14:05:28;9.55;;;5.15;;
29812;SDS011;16707;48.106;11.548;2023-02-11T14:08:14;7.88;;;5.60;;
29812;SDS011;16707;48.106;11.548;2023-02-11T14:14:14;8.40;;;4.53;;
29812;SDS011;16707;48.106;11.548;2023-02-11T14:19:57;8.90;;;4.78;;
29812;SDS011;16707;48.106;11.548;2023-02-11T14:22:26;10.20;;;5.28;;
29812;SDS011;16707;48.106;11.548;2023-02-11T14:24:56;8.18;;;5.20;;
29812;SDS011;16707;48.106;11.548;2023-02-11T14:27:35;6.65;;;4.80;;
29812;SDS011;16707;48.106;11.548;2023-02-11T14:36:04;11.52;;;5.90;;
29812;SDS011;16707;48.106;11.548;2023-02-11T14:38:47;9.25;;;5.07;;
29812;SDS011;16707;48.106;11.548;2023-02-11T14:41:25;13.00;;;6.53;;
29812;SDS011;16707;48.106;11.548;2023-02-11T14:43:56;10.85;;;5.60;;
29812;SDS011;16707;48.106;11.548;2023-02-11T14:46:25;9.38;;;5.80;;
29812;SDS011;16707;48.106;11.548;2023-02-11T14:48:59;8.55;;;5.72;;
29812;SDS011;16707;48.106;11.548;2023-02-11T14:51:27;10.43;;;6.38;;
29812;SDS011;16707;48.106;11.548;2023-02-11T14:53:57;8.82;;;5.90;;
29812;SDS011;16707;48.106;11.548;2023-02-11T14:56:28;10.43;;;5.68;;
29812;SDS011;16707;48.106;11.548;2023-02-11T14:58:58;10.13;;;6.03;;
29812;SDS011;16707;48.106;11.548;2023-02-11T15:01:27;12.45;;;6.50;;
29812;SDS011;16707;48.106;11.548;2023-02-11T15:03:59;11.70;;;6.28;;
29812;SDS011;16707;48.106;11.548;2023-02-11T15:06:28;11.25;;;6.28;;
29812;SDS011;16707;48.106;11.548;2023-02-11T15:08:58;9.50;;;6.25;;
29812;SDS011;16707;48.106;11.548;2023-02-11T15:11:30;12.43;;;6.10;;
29812;SDS011;16707;48.106;11.548;2023-02-11T15:14:04;15.25;;;7.25;;
29812;SDS011;16707;48.106;11.548;2023-02-11T15:16:33;12.25;;;7.07;;
29812;SDS011;16707;48.106;11.548;2023-02-11T15:19:10;14.15;;;7.18;;
29812;SDS011;16707;48.106;11.548;2023-02-11T15:21:45;15.80;;;8.02;;
29812;SDS011;16707;48.106;11.548;2023-02-11T15:24:23;13.45;;;7.78;;
29812;SDS011;16707;48.106;11.548;2023-02-11T15:26:55;11.55;;;7.40;;
29812;SDS011;16707;48.106;11.548;2023-02-11T15:29:27;17.52;;;9.13;;
29812;SDS011;16707;48.106;11.548;2023-02-11T15:32:04;15.35;;;8.57;;